Event Information

 Kaprun, Austria
26 July 2024 to 27 July 2024

Grossglockner Ultra-Trail® 2024

Top trail runners and mountain runners will meet in the Zell am See-Kaprun region from 23 to 26 July 2026. To do what? Running, of course. And that around Austria's highest mountain. Into the fascinating world of the Hohe Tauern National Park, covering 110 km and over 6,500 altitude metres, past 14 glaciers, through 3 federal states and past 300 th

Osttirol Trail

Itra Points
Itra Images
Mountain Level
7
Finisher level
340
National League
Runner Time Race Score Age-Group Gender Nationality
1 LINDL MARKUS 11:04:02
Subscribe to an ITRA Subscription for just €12 per year (that's €1 per month) to unlock all race statistics
+
110;
23-34 M AUT
2 RÖßLER Juliane 11:21:46 23-34 F GER
3 KROLEWICZ Michal 11:34:02 35-39 M POL
4 LINDERMAYR Matthias 11:55:29 35-39 M GER
5 LEITNER Benjamin 12:17:02 23-34 M AUT
6 STURM Werner 12:23:20 45-49 M AUT
7 PRASIL David 12:49:58 23-34 M CZE
8 BORSUK Alexandra 13:07:04 35-39 F USA
9 PRIMAVERA Luca 13:11:01 23-34 M ITA
10 DROTHLER Stephan 13:14:45 23-34 M AUT
11 VERSCHOREN Stijn 13:26:38 23-34 M BEL
12 STEINDORFER Markus 13:29:18 45-49 M AUT
13 FALAPPA Fabrizio 13:35:36 50-54 M ITA
13 ROEHRICHT THOMAS 13:35:36 35-39 M GER
15 GAUME Jeremy 13:55:55 40-44 M FRA
16 FLASCH Nina 14:13:08 23-34 F SUI
17 LACHOWICZ Michal 14:17:30 23-34 M CZE
18 FISCHER Marco 14:27:56 23-34 M SUI
19 KOWOLLIK Mirek 14:28:10 35-39 M GER
20 URBACZKA Matej 14:31:40 23-34 M CZE
21 STEINER Werner 14:32:27 50-54 M AUT
22 STEGER Thomas 14:39:48 40-44 M AUT
23 SMITH Michael 14:50:45 50-54 M USA
24 TOPOROWICZ Agata 14:52:37 45-49 F POL
25 GUENTHER Steven 15:06:30 50-54 M GER
26 HAAS Sebastian 15:14:56 23-34 M GER
27 GRATZ Martin 15:22:27 55-59 M AUT
28 KALECINSKI Piotr 15:22:53 35-39 M POL
29 OBR Ales 15:25:06 35-39 M CZE
30 VANDENBERGH Wout 15:27:19 23-34 M BEL
31 GERGER Laurenz 15:31:45 23-34 M GBR
32 GREENBERG Rebecca 15:38:34 35-39 F USA
33 DEN HOLLANDER Marijn 15:45:05 40-44 M NED
34 TESAŘÍKOVÁ Tereza 15:46:07 35-39 F CZE
35 KÜCHLER Stefan 15:52:50 45-49 M GER
36 ZADAK Zdenek 16:00:05 23-34 M CZE
37 FECHNER Rene 16:12:27 35-39 M GER
38 POLACEK Jiri 16:12:44 45-49 M CZE
39 BICHLER Werner 16:13:44 40-44 M AUT
40 ZOIER Hans 16:13:45 35-39 M AUT
41 HERMANSKY Jan 16:34:03 35-39 M CZE
42 JANCAR Peter 16:35:07 35-39 M SVK
42 WEISS Ingo 16:35:07 45-49 M GER
44 DOROFEJEVS Jurijs 16:48:22 45-49 M LAT
45 HINZE PETER 16:49:53 65-69 M GER
46 PERNEGGER Maria 17:03:46 23-34 F AUT
47 ERHARDT Margret 17:04:04 50-54 F AUT
48 BRANDSTATTER Markus 17:07:40 50-54 M AUT
49 JUNG Konstantin 17:10:49 23-34 M AUT
50 GOTTSCHLICH Felix 17:12:27 35-39 M GER
51 JADRNICEK Michal 17:14:49 35-39 M CZE
52 HAMEN Melanie 17:32:58 35-39 F AUT
53 HOUWELING Frank 17:38:05 45-49 M NED
54 BILLARDON David 17:38:11 35-39 M FRA
55 FELLAH Dror 17:54:29 45-49 M ISR
56 PISOVA Monika 17:55:22 50-54 F SVK
57 MARKARDT Susan 18:00:34 40-44 F GER
58 LENZ Sandro 18:01:32 45-49 M AUT
59 KLIMCZAK Piotr 18:08:46 55-59 M POL
60 BELIANSKY Anton 18:11:38 60-64 M SVK
61 SOUSA Paulo 18:12:12 45-49 M POR
62 SMEJKAL Ondrej 18:21:01 40-44 M CZE
63 JASENSKY Lukas 18:23:24 23-34 M CZE
64 FALAH Rekad 18:30:49 55-59 M ISR
65 PUFFER Stefanie 18:36:33 23-34 F AUT
66 WINTER Andreas 18:49:03 45-49 M AUT
67 GROSSHAMMER Johann 18:49:14 55-59 M AUT
68 MAIER Raphaela 19:33:25 23-34 F AUT
69 SPIELBERGER Lukas 19:33:40 23-34 M AUT
70 HANACKOVA Veronika 19:38:58 23-34 F CZE
71 FURIAN Andreas 19:39:53 45-49 M AUT
72 BAREK Miloslav 19:41:28 35-39 M CZE
73 KIRN Mario 19:50:28 40-44 M GER
74 AUDY Adam 19:59:37 23-34 M CZE
75 ZELENKA Ondrej 20:04:50 23-34 M CZE
76 TOKARZ MARCIN 20:19:21 50-54 M POL
77 VAN SCHENDEL Ralph 20:46:06 50-54 M NED
78 PAJNIC Neza 20:48:58 45-49 F SLO
79 SKORPIKOVA Dagmar 20:52:15 40-44 F CZE
79 TALABOVA Monika 20:52:15 35-39 F CZE
81 ADELMANN Martin 21:01:43 45-49 M AUT
82 WESTPHAL Daniel 21:02:12 35-39 M GER
83 SILLER Achim 21:06:29 50-54 M GER
84 SEDLACKOVA Silvie 22:21:54 45-49 F CZE
85 DROZD Milosz 22:39:40 35-39 M POL
DNF ADIV gabi - M ISR
DNF Anonymous 65838 - - GER
DNF BRUCKGRABER Christoph - M AUT
DNF BUBNOVA Elena - F CZE
DNF ENNE Anton - M AUT
DNF GLASS Valentin - M GER
DNF GORGASSER Martin - M AUT
DNF HILBERT Beliana - F GER
DNF HÖSCHELE Patrick - M GER
DNF LAMBRICKX Leo - M FRA
DNF LANG Marianne - F AUT
DNF LENGAUER Alexander - M AUT
DNF MICHITSCH Gert - M AUT
DNF PHILLIPS Blake - M CAN
DNF PROHASKA Rainer - M AUT
DNF PRUTNER Matthias - M GER
DNF SCHEFTSCHIK MAXIMILIAN - M GER
DNF SCHMID Florian - M GER
DNF SCHMIDTKE Robert - M GER
DNF SCHNEIDER MICHAEL - M GER
DNF STITAKOVA Adela - F CZE
DNF UNTERWEGER Bettina - F AUT
DNF WASCHOW Sven - M GER
DNF WOHLAUF Michael - M GER
DNF ZWIRNER Patrick - M GER